createdAt,value
2018-06-25T00:02:07.885Z,97.80
2018-06-25T00:04:36.272Z,98.00
2018-06-25T00:07:04.626Z,97.70
2018-06-25T00:09:32.932Z,97.90
2018-06-25T00:12:01.311Z,97.80
2018-06-25T00:14:29.640Z,97.90
2018-06-25T00:16:57.980Z,97.90
2018-06-25T00:19:26.303Z,97.90
2018-06-25T00:21:54.660Z,97.90
2018-06-25T00:24:22.992Z,97.90
2018-06-25T00:26:51.838Z,97.90
2018-06-25T00:29:20.169Z,98.00
2018-06-25T00:31:48.507Z,97.90
2018-06-25T00:34:16.889Z,98.00
2018-06-25T00:36:45.960Z,98.00
2018-06-25T00:39:14.291Z,98.10
2018-06-25T00:41:42.639Z,98.10
2018-06-25T00:44:12.089Z,98.20
2018-06-25T00:46:40.432Z,98.10
2018-06-25T00:49:09.746Z,98.20
2018-06-25T00:51:38.040Z,98.40
2018-06-25T00:54:06.404Z,98.50
2018-06-25T00:56:34.718Z,98.40
2018-06-25T00:59:14.195Z,98.30
2018-06-25T01:01:42.554Z,98.30
2018-06-25T01:04:10.812Z,98.20
2018-06-25T01:06:39.780Z,98.20
2018-06-25T01:09:10.696Z,98.20
2018-06-25T01:11:39.057Z,98.20
2018-06-25T01:14:07.484Z,98.20
2018-06-25T01:16:36.347Z,98.10
2018-06-25T01:19:04.699Z,98.10
2018-06-25T01:21:33.024Z,98.10
2018-06-25T01:24:01.700Z,97.90
2018-06-25T01:26:30.076Z,98.10
2018-06-25T01:28:58.420Z,98.10
2018-06-25T01:31:26.749Z,98.20
2018-06-25T01:33:55.132Z,98.10
2018-06-25T01:36:23.550Z,98.10
2018-06-25T01:38:51.896Z,98.20
2018-06-25T01:41:20.239Z,98.10
2018-06-25T01:43:48.611Z,98.00
2018-06-25T01:46:17.888Z,98.20
2018-06-25T01:48:46.231Z,98.40
2018-06-25T01:51:14.568Z,98.30
2018-06-25T01:53:42.921Z,98.50
2018-06-25T01:56:11.232Z,98.40
2018-06-25T01:58:39.559Z,98.60
2018-06-25T02:01:07.909Z,98.40
2018-06-25T02:03:36.580Z,98.40
2018-06-25T02:06:04.952Z,98.40
2018-06-25T02:08:33.263Z,98.60
2018-06-25T02:11:01.647Z,98.50
2018-06-25T02:13:29.987Z,98.50
2018-06-25T02:15:58.840Z,98.60
2018-06-25T02:18:27.160Z,98.80
2018-06-25T02:20:56.264Z,98.50
2018-06-25T02:23:24.573Z,98.50
2018-06-25T02:25:52.899Z,98.50
2018-06-25T02:28:21.212Z,98.60
2018-06-25T02:30:49.777Z,98.70
2018-06-25T02:33:18.117Z,98.80
2018-06-25T02:35:46.468Z,98.80
2018-06-25T02:38:14.787Z,98.90
2018-06-25T02:40:43.100Z,99.10
2018-06-25T02:43:11.396Z,99.10
2018-06-25T02:45:39.709Z,99.20
2018-06-25T02:48:08.056Z,99.20
2018-06-25T02:50:37.040Z,99.10
2018-06-25T02:53:05.677Z,99.20
2018-06-25T02:55:33.964Z,99.10
2018-06-25T02:58:02.303Z,99.20
2018-06-25T03:00:30.636Z,99.10
2018-06-25T03:02:58.955Z,99.20
2018-06-25T03:05:29.109Z,99.30
2018-06-25T03:07:57.540Z,99.40
2018-06-25T03:10:26.540Z,99.40
2018-06-25T03:12:54.863Z,99.40
2018-06-25T03:15:23.852Z,99.30
2018-06-25T03:17:52.199Z,99.50
2018-06-25T03:20:20.512Z,99.50
2018-06-25T03:22:48.853Z,99.50
2018-06-25T03:25:17.395Z,99.50
2018-06-25T03:27:45.754Z,99.60
2018-06-25T03:30:14.080Z,99.80
2018-06-25T03:32:43.054Z,99.70
2018-06-25T03:35:11.400Z,99.80
2018-06-25T03:37:39.741Z,99.90
2018-06-25T03:40:08.104Z,99.80
2018-06-25T03:42:37.332Z,99.90
2018-06-25T03:45:05.960Z,99.90
2018-06-25T03:47:34.266Z,99.90
2018-06-25T03:50:02.632Z,99.90
2018-06-25T03:52:31.391Z,99.90
2018-06-25T03:54:59.712Z,99.90
2018-06-25T03:57:28.668Z,99.90
2018-06-25T03:59:58.036Z,99.90
2018-06-25T04:02:26.339Z,99.90
2018-06-25T04:04:55.385Z,99.90
2018-06-25T04:07:26.097Z,99.90
2018-06-25T04:09:57.790Z,99.90
2018-06-25T04:12:27.861Z,99.90
2018-06-25T04:14:56.540Z,99.90
2018-06-25T04:17:25.410Z,99.90
2018-06-25T04:19:53.738Z,99.90
2018-06-25T04:22:22.104Z,99.90
2018-06-25T04:24:50.420Z,99.90
2018-06-25T04:27:18.756Z,99.90
2018-06-25T04:29:47.084Z,99.90
2018-06-25T04:32:15.405Z,99.90
2018-06-25T04:34:43.711Z,99.90
2018-06-25T04:37:12.392Z,99.90
2018-06-25T04:39:40.756Z,99.90
2018-06-25T04:42:09.087Z,99.90
2018-06-25T04:44:37.500Z,99.90
2018-06-25T04:47:05.860Z,99.90
2018-06-25T04:49:34.164Z,99.90
2018-06-25T04:52:02.476Z,99.90
2018-06-25T04:54:30.863Z,99.90
2018-06-25T04:56:59.173Z,99.80
2018-06-25T04:59:27.628Z,99.80
2018-06-25T05:01:56.173Z,99.60
2018-06-25T05:04:24.607Z,99.50
2018-06-25T05:06:52.914Z,99.60
2018-06-25T05:09:21.245Z,99.60
2018-06-25T05:11:49.548Z,99.50
2018-06-25T05:14:17.892Z,99.70
2018-06-25T05:16:46.200Z,99.60
2018-06-25T05:19:14.540Z,99.40
2018-06-25T05:21:42.851Z,99.10
2018-06-25T05:24:11.159Z,99.50
2018-06-25T05:26:39.515Z,99.20
2018-06-25T05:29:07.889Z,98.90
2018-06-25T05:31:36.163Z,99.30
2018-06-25T05:34:04.497Z,99.40
2018-06-25T05:36:32.816Z,99.00
2018-06-25T05:39:01.128Z,98.90
2018-06-25T05:41:29.447Z,98.80
2018-06-25T05:43:58.404Z,98.80
2018-06-25T05:46:26.724Z,98.50
2018-06-25T05:48:55.919Z,98.40
2018-06-25T05:51:24.232Z,98.90
2018-06-25T05:53:52.589Z,98.30
2018-06-25T05:56:20.920Z,98.70
2018-06-25T05:58:49.267Z,97.70
2018-06-25T06:01:17.757Z,98.00
2018-06-25T06:03:46.202Z,98.00
2018-06-25T06:06:14.560Z,98.10
2018-06-25T06:08:43.890Z,97.90
2018-06-25T06:11:12.211Z,98.00
2018-06-25T06:13:40.535Z,98.10
2018-06-25T06:16:08.844Z,97.80
2018-06-25T06:18:37.238Z,97.60
2018-06-25T06:21:05.714Z,98.00
2018-06-25T06:23:34.052Z,98.40
2018-06-25T06:26:02.448Z,98.00
2018-06-25T06:28:30.844Z,98.10
2018-06-25T06:30:59.196Z,97.10
2018-06-25T06:33:27.535Z,97.40
2018-06-25T06:35:55.840Z,97.20
2018-06-25T06:38:24.192Z,97.40
2018-06-25T06:40:52.500Z,97.70
2018-06-25T06:43:20.816Z,97.20
2018-06-25T06:45:49.160Z,97.30
2018-06-25T06:48:17.488Z,96.80
2018-06-25T06:50:45.837Z,97.40
2018-06-25T06:53:14.164Z,97.30
2018-06-25T06:55:42.611Z,97.60
2018-06-25T06:58:10.921Z,97.50
2018-06-25T07:00:39.244Z,97.40
2018-06-25T07:03:07.597Z,97.70
2018-06-25T07:05:35.933Z,97.30
2018-06-25T07:08:04.320Z,97.80
2018-06-25T07:10:32.756Z,97.80
2018-06-25T07:13:01.128Z,97.30
2018-06-25T07:15:29.466Z,97.10
2018-06-25T07:17:57.788Z,96.90
2018-06-25T07:20:27.497Z,97.30
2018-06-25T07:22:55.811Z,97.50
2018-06-25T07:25:24.192Z,97.10
2018-06-25T07:27:52.529Z,97.30
2018-06-25T07:30:22.620Z,97.70
2018-06-25T07:32:50.936Z,96.90
2018-06-25T07:35:19.296Z,96.60
2018-06-25T07:37:47.752Z,96.00
2018-06-25T07:40:16.074Z,96.40
2018-06-25T07:42:44.644Z,96.10
2018-06-25T07:45:12.965Z,96.20
2018-06-25T07:47:41.312Z,96.50
2018-06-25T07:50:09.668Z,95.30
2018-06-25T07:52:38.456Z,96.20
2018-06-25T07:55:06.780Z,95.90
2018-06-25T07:57:35.162Z,95.10
2018-06-25T08:00:03.689Z,93.80
2018-06-25T08:02:32.029Z,94.90
2018-06-25T08:05:00.868Z,94.60
2018-06-25T08:07:29.184Z,95.00
2018-06-25T08:09:57.544Z,95.00
2018-06-25T08:12:25.944Z,94.80
2018-06-25T08:14:54.276Z,94.00
2018-06-25T08:17:22.593Z,94.30
2018-06-25T08:19:50.933Z,93.70
2018-06-25T08:22:19.284Z,94.20
2018-06-25T08:24:47.636Z,94.10
2018-06-25T08:27:15.979Z,94.60
2018-06-25T08:29:44.344Z,94.20
2018-06-25T08:32:12.675Z,94.90
2018-06-25T08:34:41.017Z,93.70
2018-06-25T08:37:09.421Z,94.00
2018-06-25T08:39:37.627Z,94.10
2018-06-25T08:42:06.396Z,93.30
2018-06-25T08:44:35.389Z,92.10
2018-06-25T08:47:03.732Z,92.90
2018-06-25T08:49:32.048Z,92.20
2018-06-25T08:52:00.484Z,92.20
2018-06-25T08:54:28.732Z,92.10
2018-06-25T08:56:57.114Z,92.50
2018-06-25T08:59:25.396Z,92.90
2018-06-25T09:01:53.740Z,92.30
2018-06-25T09:04:22.059Z,92.60
2018-06-25T09:06:50.387Z,93.20
2018-06-25T09:09:18.869Z,94.00
2018-06-25T09:11:47.199Z,93.70
2018-06-25T09:14:16.505Z,93.90
2018-06-25T09:16:45.444Z,94.70
2018-06-25T09:19:13.775Z,94.90
2018-06-25T09:21:42.081Z,94.70
2018-06-25T09:24:10.456Z,94.20
2018-06-25T09:26:40.392Z,94.10
2018-06-25T09:29:09.817Z,93.50
2018-06-25T09:31:38.116Z,92.80
2018-06-25T09:34:10.663Z,92.80
2018-06-25T09:36:39.550Z,93.30
2018-06-25T09:39:09.368Z,93.50
2018-06-25T09:41:37.973Z,93.60
2018-06-25T09:44:06.096Z,93.50
2018-06-25T09:46:34.669Z,92.40
2018-06-25T09:49:02.996Z,92.50
2018-06-25T09:51:31.415Z,92.00
2018-06-25T09:54:00.355Z,92.50
2018-06-25T09:56:28.729Z,92.60
2018-06-25T09:58:57.804Z,93.00
2018-06-25T10:01:26.120Z,91.40
2018-06-25T10:03:54.436Z,91.30
2018-06-25T10:06:22.769Z,91.50
2018-06-25T10:08:51.097Z,91.80
2018-06-25T10:11:19.468Z,91.60
2018-06-25T10:13:47.804Z,92.40
2018-06-25T10:16:16.120Z,91.60
2018-06-25T10:18:44.495Z,91.90
2018-06-25T10:21:12.899Z,91.10
2018-06-25T10:23:41.204Z,90.60
2018-06-25T10:26:09.716Z,89.60
2018-06-25T10:28:38.404Z,89.80
2018-06-25T10:31:06.933Z,90.10
2018-06-25T10:33:35.283Z,90.00
2018-06-25T10:36:03.684Z,90.40
2018-06-25T10:38:32.020Z,90.80
2018-06-25T10:41:00.328Z,90.10
2018-06-25T10:43:28.669Z,89.80
2018-06-25T10:45:56.981Z,90.10
2018-06-25T10:48:25.300Z,89.30
2018-06-25T10:50:53.628Z,88.00
2018-06-25T10:53:21.943Z,88.30
2018-06-25T10:55:50.283Z,88.10
2018-06-25T10:58:18.819Z,90.00
2018-06-25T11:00:47.110Z,88.60
2018-06-25T11:03:15.425Z,86.80
2018-06-25T11:05:43.932Z,87.80
2018-06-25T11:08:13.152Z,88.40
2018-06-25T11:10:41.481Z,89.50
2018-06-25T11:13:10.732Z,89.90
2018-06-25T11:15:39.048Z,88.20
2018-06-25T11:18:07.366Z,89.60
2018-06-25T11:20:35.716Z,88.90
2018-06-25T11:23:04.050Z,88.20
2018-06-25T11:25:32.372Z,88.80
2018-06-25T11:28:00.692Z,89.20
2018-06-25T11:30:29.064Z,89.40
2018-06-25T11:32:57.376Z,89.70
2018-06-25T11:35:25.711Z,89.60
2018-06-25T11:37:54.103Z,87.00
2018-06-25T11:40:22.464Z,87.60
2018-06-25T11:42:50.800Z,88.30
2018-06-25T11:45:19.141Z,89.70
2018-06-25T11:47:47.468Z,87.80
2018-06-25T11:50:15.787Z,87.60
2018-06-25T11:52:44.130Z,88.50
2018-06-25T11:55:12.448Z,88.30
2018-06-25T11:57:40.767Z,88.10
2018-06-25T12:00:09.154Z,86.90
2018-06-25T12:02:37.670Z,87.60
2018-06-25T12:05:07.567Z,86.00
2018-06-25T12:07:35.926Z,86.70
2018-06-25T12:10:04.316Z,84.40
2018-06-25T12:12:32.734Z,85.60
2018-06-25T12:15:02.124Z,84.60
2018-06-25T12:17:30.567Z,85.00
2018-06-25T12:19:58.840Z,84.10
2018-06-25T12:22:27.184Z,84.90
2018-06-25T12:24:55.865Z,86.20
2018-06-25T12:27:24.280Z,85.30
2018-06-25T12:29:52.584Z,87.70
2018-06-25T12:32:20.940Z,85.70
2018-06-25T12:34:49.258Z,82.90
2018-06-25T12:37:17.608Z,84.70
2018-06-25T12:39:45.919Z,83.80
2018-06-25T12:42:14.246Z,83.90
2018-06-25T12:44:42.576Z,83.40
2018-06-25T12:47:10.920Z,84.10
2018-06-25T12:49:39.276Z,84.40
2018-06-25T12:52:07.619Z,84.50
2018-06-25T12:54:36.068Z,84.50
2018-06-25T12:57:04.418Z,84.20
2018-06-25T12:59:32.736Z,83.90
2018-06-25T13:02:01.040Z,85.70
2018-06-25T13:04:29.336Z,85.20
2018-06-25T13:06:57.684Z,83.80
2018-06-25T13:09:26.028Z,85.10
2018-06-25T13:11:54.355Z,84.80
2018-06-25T13:14:22.660Z,82.10
2018-06-25T13:16:51.175Z,82.10
2018-06-25T13:19:19.645Z,83.70
2018-06-25T13:21:47.964Z,81.20
2018-06-25T13:24:16.304Z,84.60
2018-06-25T13:26:44.640Z,83.40
2018-06-25T13:29:12.968Z,82.10
2018-06-25T13:31:41.383Z,82.20
2018-06-25T13:34:09.708Z,78.60
2018-06-25T13:36:38.052Z,79.10
2018-06-25T13:39:07.751Z,77.90
2018-06-25T13:41:36.223Z,79.70
2018-06-25T13:44:04.600Z,78.70
2018-06-25T13:46:32.948Z,77.10
2018-06-25T13:49:01.372Z,77.70
2018-06-25T13:51:29.750Z,79.70
2018-06-25T13:53:58.228Z,78.60
2018-06-25T13:56:26.680Z,76.60
2018-06-25T13:58:55.628Z,74.40
2018-06-25T14:01:23.946Z,72.50
2018-06-25T14:03:52.327Z,73.40
2018-06-25T14:06:20.628Z,70.30
2018-06-25T14:08:48.957Z,70.70
2018-06-25T14:11:17.300Z,69.20
2018-06-25T14:13:45.631Z,67.20
2018-06-25T14:16:14.119Z,64.10
2018-06-25T14:18:42.475Z,64.20
2018-06-25T14:21:10.825Z,61.40
2018-06-25T14:23:43.416Z,67.50
2018-06-25T14:26:15.462Z,60.00
2018-06-25T14:28:43.815Z,58.20
2018-06-25T14:31:17.576Z,56.40
2018-06-25T14:33:51.221Z,60.30
2018-06-25T14:36:19.576Z,60.40
2018-06-25T14:38:47.952Z,61.20
2018-06-25T14:41:16.291Z,58.10
2018-06-25T14:43:44.641Z,56.50
2018-06-25T14:46:13.034Z,58.10
2018-06-25T14:48:41.396Z,58.60
2018-06-25T14:51:09.688Z,56.50
2018-06-25T14:53:38.059Z,53.00
2018-06-25T14:56:06.376Z,53.70
2018-06-25T14:58:34.757Z,55.90
2018-06-25T15:01:03.073Z,56.50
2018-06-25T15:03:31.396Z,58.90
2018-06-25T15:05:59.751Z,61.00
2018-06-25T15:08:28.089Z,61.10
2018-06-25T15:10:56.419Z,62.70
2018-06-25T15:13:24.720Z,64.20
2018-06-25T15:15:53.063Z,66.10
2018-06-25T15:18:21.388Z,67.10
2018-06-25T15:20:49.712Z,65.60
2018-06-25T15:23:18.056Z,60.00
2018-06-25T15:25:46.425Z,58.80
2018-06-25T15:28:14.775Z,57.90
2018-06-25T15:30:43.118Z,57.20
2018-06-25T15:33:11.440Z,56.50
2018-06-25T15:35:39.750Z,54.30
2018-06-25T15:38:08.128Z,56.10
2018-06-25T15:40:36.372Z,61.30
2018-06-25T15:43:04.817Z,62.10
2018-06-25T15:45:33.241Z,62.40
2018-06-25T15:48:01.620Z,63.20
2018-06-25T15:50:29.922Z,63.40
2018-06-25T15:52:58.266Z,64.10
2018-06-25T15:55:26.596Z,63.30
2018-06-25T15:57:54.947Z,60.00
2018-06-25T16:00:23.348Z,58.40
2018-06-25T16:02:51.691Z,59.40
2018-06-25T16:05:20.029Z,59.60
2018-06-25T16:07:48.396Z,59.20
2018-06-25T16:10:16.816Z,61.60
2018-06-25T16:12:45.128Z,62.80
2018-06-25T16:15:13.496Z,62.70
2018-06-25T16:17:41.823Z,63.80
2018-06-25T16:20:10.156Z,66.00
2018-06-25T16:22:38.515Z,64.40
2018-06-25T16:25:07.172Z,65.20
2018-06-25T16:27:35.519Z,65.80
2018-06-25T16:30:04.132Z,69.30
2018-06-25T16:32:33.738Z,68.20
2018-06-25T16:35:02.386Z,67.60
2018-06-25T16:37:30.809Z,64.90
2018-06-25T16:39:59.133Z,61.00
2018-06-25T16:42:27.548Z,57.40
2018-06-25T16:44:56.090Z,57.00
2018-06-25T16:47:24.437Z,55.50
2018-06-25T16:49:52.872Z,56.50
2018-06-25T16:52:21.213Z,57.20
2018-06-25T16:54:49.541Z,56.80
2018-06-25T16:57:17.917Z,55.20
2018-06-25T16:59:46.310Z,52.00
2018-06-25T17:02:14.599Z,53.40
2018-06-25T17:04:42.919Z,52.30
2018-06-25T17:07:11.232Z,55.40
2018-06-25T17:09:39.545Z,55.30
2018-06-25T17:12:07.863Z,55.40
2018-06-25T17:14:36.187Z,57.60
2018-06-25T17:17:04.520Z,59.20
2018-06-25T17:19:32.854Z,59.50
2018-06-25T17:22:01.211Z,59.40
2018-06-25T17:24:30.295Z,59.70
2018-06-25T17:26:58.648Z,60.80
2018-06-25T17:29:32.257Z,63.00
2018-06-25T17:32:00.637Z,61.30
2018-06-25T17:34:28.932Z,58.50
2018-06-25T17:36:57.893Z,60.30
2018-06-25T17:39:26.307Z,58.10
2018-06-25T17:41:54.715Z,58.00
2018-06-25T17:44:23.027Z,55.90
2018-06-25T17:46:51.361Z,55.80
2018-06-25T17:49:19.692Z,56.90
2018-06-25T17:51:48.028Z,58.50
2018-06-25T17:54:16.368Z,57.90
2018-06-25T17:56:44.791Z,58.80
2018-06-25T17:59:13.212Z,57.80
2018-06-25T18:01:41.592Z,56.90
2018-06-25T18:04:10.493Z,57.70
2018-06-25T18:06:38.824Z,59.00
2018-06-25T18:09:08.781Z,58.00
2018-06-25T18:11:37.213Z,56.00
2018-06-25T18:14:06.605Z,56.50
2018-06-25T18:16:35.000Z,55.50
2018-06-25T18:19:03.642Z,57.90
2018-06-25T18:21:31.947Z,61.00
2018-06-25T18:24:00.292Z,60.00
2018-06-25T18:26:28.787Z,58.50
2018-06-25T18:28:57.143Z,58.90
2018-06-25T18:31:25.532Z,60.90
2018-06-25T18:33:53.849Z,62.20
2018-06-25T18:36:22.640Z,63.00
2018-06-25T18:38:50.989Z,63.80
2018-06-25T18:41:19.472Z,63.90
2018-06-25T18:43:47.944Z,61.80
2018-06-25T18:48:45.025Z,61.60
2018-06-25T18:51:13.525Z,62.70
2018-06-25T18:53:41.839Z,65.10
2018-06-25T18:56:10.200Z,65.30
2018-06-25T18:58:38.544Z,65.90
2018-06-25T19:01:08.188Z,65.80
2018-06-25T19:03:36.608Z,65.40
2018-06-25T19:06:05.117Z,65.50
2018-06-25T19:08:33.544Z,65.70
2018-06-25T19:11:02.016Z,65.50
2018-06-25T19:13:30.332Z,65.90
2018-06-25T19:15:59.368Z,66.50
2018-06-25T19:18:27.920Z,67.70
2018-06-25T19:20:56.977Z,68.00
2018-06-25T19:23:25.280Z,68.30
2018-06-25T19:25:53.617Z,68.00
2018-06-25T19:28:21.927Z,68.70
2018-06-25T19:30:50.280Z,68.80
2018-06-25T19:33:18.596Z,68.90
2018-06-25T19:35:46.964Z,68.80
2018-06-25T19:38:15.271Z,68.20
2018-06-25T19:40:43.662Z,67.70
2018-06-25T19:43:11.966Z,67.30
2018-06-25T19:45:40.281Z,67.20
2018-06-25T19:48:08.656Z,67.40
2018-06-25T19:50:36.997Z,67.70
2018-06-25T19:53:05.327Z,68.60
2018-06-25T19:55:33.682Z,70.30
2018-06-25T19:58:02.262Z,71.50
2018-06-25T20:00:30.627Z,72.40
2018-06-25T20:02:58.932Z,72.30
2018-06-25T20:05:27.247Z,72.60
2018-06-25T20:07:55.957Z,72.70
2018-06-25T20:10:24.404Z,72.80
2018-06-25T20:12:52.792Z,72.90
2018-06-25T20:15:21.210Z,73.10
2018-06-25T20:17:49.634Z,72.50
2018-06-25T20:20:17.946Z,72.10
2018-06-25T20:22:46.292Z,72.20
2018-06-25T20:25:14.657Z,72.30
2018-06-25T20:27:43.156Z,72.30
2018-06-25T20:30:11.637Z,72.40
2018-06-25T20:32:40.009Z,73.00
2018-06-25T20:35:09.008Z,73.90
2018-06-25T20:37:37.352Z,74.50
2018-06-25T20:40:05.696Z,75.60
2018-06-25T20:42:34.028Z,76.70
2018-06-25T20:45:02.812Z,77.20
2018-06-25T20:47:31.156Z,77.90
2018-06-25T20:49:59.457Z,78.10
2018-06-25T20:52:27.792Z,78.10
2018-06-25T20:54:57.540Z,77.80
2018-06-25T20:57:25.847Z,77.60
2018-06-25T20:59:54.151Z,77.10
2018-06-25T21:02:22.500Z,76.90
2018-06-25T21:04:50.811Z,77.00
2018-06-25T21:07:19.114Z,77.00
2018-06-25T21:09:47.464Z,76.80
2018-06-25T21:12:15.767Z,77.00
2018-06-25T21:14:44.120Z,77.30
2018-06-25T21:17:12.448Z,77.90
2018-06-25T21:19:40.865Z,79.00
2018-06-25T21:22:09.188Z,79.90
2018-06-25T21:24:37.511Z,80.30
2018-06-25T21:27:05.908Z,80.40
2018-06-25T21:29:34.204Z,81.20
2018-06-25T21:32:02.826Z,82.00
2018-06-25T21:34:31.152Z,83.20
2018-06-25T21:36:59.524Z,84.60
2018-06-25T21:39:27.845Z,85.60
2018-06-25T21:41:56.147Z,86.20
2018-06-25T21:44:24.496Z,86.50
2018-06-25T21:46:52.922Z,86.80
2018-06-25T21:49:21.660Z,86.50
2018-06-25T21:51:49.963Z,86.60
2018-06-25T21:54:18.304Z,86.80
2018-06-25T21:56:46.617Z,87.30
2018-06-25T21:59:14.939Z,88.00
2018-06-25T22:01:43.328Z,88.70
2018-06-25T22:04:11.632Z,89.30
2018-06-25T22:06:39.972Z,89.80
2018-06-25T22:09:09.076Z,89.40
2018-06-25T22:11:37.393Z,89.60
2018-06-25T22:14:05.756Z,90.00
2018-06-25T22:16:34.120Z,89.80
2018-06-25T22:19:02.452Z,89.50
2018-06-25T22:21:30.773Z,89.20
2018-06-25T22:23:59.153Z,89.30
2018-06-25T22:26:27.473Z,89.90
2018-06-25T22:28:55.791Z,90.30
2018-06-25T22:31:24.797Z,90.70
2018-06-25T22:33:53.820Z,90.90
2018-06-25T22:36:22.872Z,91.20
2018-06-25T22:38:51.172Z,91.00
2018-06-25T22:41:19.544Z,90.70
2018-06-25T22:43:47.879Z,90.60
2018-06-25T22:46:16.267Z,90.60
2018-06-25T22:48:44.663Z,90.80
2018-06-25T22:51:13.004Z,90.90
2018-06-25T22:53:41.347Z,91.00
2018-06-25T22:56:09.656Z,91.10
2018-06-25T22:58:37.952Z,91.30
2018-06-25T23:01:06.352Z,91.50
2018-06-25T23:03:34.695Z,91.70
2018-06-25T23:06:02.956Z,91.80
2018-06-25T23:08:31.268Z,91.90
2018-06-25T23:10:59.580Z,92.20
2018-06-25T23:13:27.888Z,92.20
2018-06-25T23:15:56.213Z,92.30
2018-06-25T23:18:24.520Z,92.40
2018-06-25T23:20:52.823Z,92.70
2018-06-25T23:23:21.130Z,93.00
2018-06-25T23:25:50.108Z,93.10
2018-06-25T23:28:19.434Z,93.30
2018-06-25T23:30:48.271Z,93.30
2018-06-25T23:33:16.656Z,93.40
2018-06-25T23:35:44.964Z,93.40
2018-06-25T23:38:13.285Z,93.60
2018-06-25T23:40:41.617Z,93.80
2018-06-25T23:43:09.945Z,93.90
2018-06-25T23:45:38.255Z,94.00
2018-06-25T23:48:06.584Z,93.90
2018-06-25T23:50:34.912Z,94.00
2018-06-25T23:53:03.236Z,94.10
2018-06-25T23:55:31.620Z,94.20
2018-06-25T23:57:59.961Z,94.30
